METAR stanice u blizini

 

LDDU - Dubrovnik-Cilipi, Croatia
Distance from station: JJZ 17km
Ažurirano: 28/09/2022 14:30
Few Clouds
Few Clouds
 Pravac vetra JJI
Vetar: JJI 22 km/h
Temperatura: 21°C
Tačka rose: 15°C
Vlažnost: 69%
Pritisak: 1006 hPa
Oblaci: Few Clouds
Vidljivost: 10 km
Cloud details: Few Clouds 1219 m
2022/09/28 12:30 LDDU 281230Z 16012KT 120V190 9999 FEW040 21/15 Q1006 NOSIG
LYTV - Tivat, Montenegro
Distance from station: JI 48km
Ažurirano: 28/09/2022 14:30
Partly Cloudy
Partly Cloudy
 Pravac vetra J
Vetar: J 19 km/h
Temperatura: 23°C
Tačka rose: 14°C
Vlažnost: 57%
Pritisak: 1006 hPa
Oblaci: Partly Cloudy
Vidljivost: 10 km
Cloud details: Partly Cloudy 1433 m
2022/09/28 12:30 LYTV 281230Z 17010KT 140V230 9999 SCT047 23/14 Q1006 NOSIG
LQMO - Mostar Airport, Bosnia-Herzegovina
Distance from station: SSZ 76km
Ažurirano: 28/09/2022 14:00
Partly Cloudy
Partly Cloudy
 Pravac vetra J
Vetar: J 17 km/h
Temperatura: 25°C
Tačka rose: 12°C
Vlažnost: 44%
Pritisak: 1003 hPa
Oblaci: Partly Cloudy
Vidljivost: 10 km
Cloud details: Few Clouds 1219 m
Partly Cloudy 1524 m
2022/09/28 12:00 LQMO 281200Z 19009KT 170V240 9999 FEW040TCU SCT050 25/12 Q1003
 
LYPG - Podgorica(Titogr, Montenegro
Distance from station: IJI 84km
Ažurirano: 28/09/2022 14:30
Few Clouds
Few Clouds
 Pravac vetra varies
Vetar: varies 6 km/h
Temperatura: 24°C
Tačka rose: 12°C
Vlažnost: 47%
Pritisak: 1006 hPa
Oblaci: Few Clouds
Vidljivost: 10 km
Cloud details: Few Clouds 1219 m
2022/09/28 12:30 LYPG 281230Z VRB03KT 9999 FEW040 24/12 Q1006 NOSIG
LQSA - Sarajevo/Butmir, Bosnia-Herzegovina
Distance from station: S 123km
Ažurirano: 28/09/2022 14:30
Partly Cloudy
Partly Cloudy
 Pravac vetra varies
Vetar: varies 2 km/h
Temperatura: 20°C
Tačka rose: 12°C
Vlažnost: 60%
Pritisak: 1003 hPa
Oblaci: Partly Cloudy
Vidljivost: 10 km
Cloud details: Partly Cloudy 1524 m
2022/09/28 12:30 LQSA 281230Z VRB01KT 9999 SCT050 20/12 Q1003 NOSIG
LDSB - Bol Airport, Croatia
Distance from station: ZSZ 149km
Ažurirano: 27/09/2022 16:00
NOT Current
Few Clouds
Few Clouds
 Pravac vetra JZ
Vetar: JZ 17 km/h
Temperatura: 20°C
Tačka rose: 10°C
Vlažnost: 53%
Pritisak: 1003 hPa
Oblaci: Few Clouds
Vidljivost: 10 km
Cloud details: Few Clouds 914 m
2022/09/27 14:00 LDSB 271400Z 22009KT 9999 FEW030 20/10 Q1003
 
LYUZ - Uzice-Ponikve, Serbia
Distance from station: SI 172km
Ažurirano: 04/11/2021 00:30
NOT Current

 Pravac vetra varies
Vetar: varies 9 km/h
Temperatura: 14°C
Tačka rose: 7°C
Vlažnost: 63%
Pritisak: 1010 hPa
Vidljivost: 10 km
2021/11/03 23:30 LYUZ 032330Z AUTO VRB05KT 9999 ////// 14/07 Q1010
LATI - Tirana, Albania
Distance from station: JI 183km
Ažurirano: 28/09/2022 14:50
Mostly Cloudy
Mostly Cloudy
 Pravac vetra ZJZ
Vetar: ZJZ 11 km/h
Temperatura: 25°C
Tačka rose: 13°C
Vlažnost: 47%
Pritisak: 1006 hPa
Oblaci: Mostly Cloudy
Vidljivost: 10 km
Cloud details: Few Clouds 914 m
Mostly Cloudy 1981 m
2022/09/28 12:50 LATI 281250Z 24006KT 200V300 9999 FEW030 BKN065 25/13 Q1006 NOSIG
LDSP - Split/Kastel Sta, Croatia
Distance from station: ZSZ 188km
Ažurirano: 28/09/2022 14:30
Vedro
Vedro
 Pravac vetra ZJZ
Vetar: ZJZ 7 km/h
Temperatura: 22°C
Tačka rose: 12°C
Vlažnost: 53%
Pritisak: 1003 hPa
Pregled: Vedro
Vidljivost: greater than 10 km
2022/09/28 12:30 LDSP 281230Z 24004KT 210V290 CAVOK 22/12 Q1003 NOSIG
 
LQTZ - Tuzla, Bosnia-Herzegovina
Distance from station: S 198km
Ažurirano: 28/09/2022 14:30
Few Clouds
Few Clouds
 Pravac vetra varies
Vetar: varies 4 km/h
Temperatura: 23°C
Tačka rose: 15°C
Vlažnost: 61%
Pritisak: 1001 hPa
Oblaci: Few Clouds
Vidljivost: 10 km
Cloud details: Few Clouds 1219 m
2022/09/28 12:30 LQTZ 281230Z VRB02KT 9999 FEW040 23/15 Q1001